Terminal Aerodrome Forecast
Issued by NWS

Home | Current Version | Previous Version | Text Only | Print | Product List | Glossary On
Versions: 1 2 3 4 5 6 7 8 9 10 11 12 13 14 15 16
056
FTUS45 KTFX 062334
TAFHLN
TAF
KHLN 062334Z 0700/0724 27018G28KT P6SM BKN070
     FM070700 28015KT P6SM SCT150
     FM071200 27010KT P6SM SCT180
     FM071900 28012G22KT P6SM SCT180=

USA.gov is the U.S. government's official web portal to all federal, state and local government web resources and services.